Time;durP1;ratioP1;P1;durP2;ratioP2;P2;SDS_P1;SDS_P2;PMS_P1;PMS_P2;Temp;Humidity;BMP_temperature;BMP_pressure;BME280_temperature;BME280_humidity;BME280_pressure;Samples;Min_cycle;Max_cycle;Signal;HPM_P1;HPM_P2
2023/04/24 00:00:22;;;;;;;6.27;2.70;;;9.50;99.90;;;;;;4985611;28;39124;-77
2023/04/24 00:02:48;;;;;;;10.20;3.70;;;9.50;99.90;;;;;;4988418;28;38932;-77
2023/04/24 00:05:17;;;;;;;6.03;3.50;;;9.50;99.90;;;;;;4986986;28;36045;-78
2023/04/24 00:07:46;;;;;;;7.07;4.00;;;9.50;99.90;;;;;;4991977;28;36608;-78
2023/04/24 00:10:12;;;;;;;6.77;4.23;;;9.60;99.90;;;;;;4990196;28;38005;-78
2023/04/24 00:12:38;;;;;;;5.33;3.83;;;9.50;99.90;;;;;;4990157;28;37855;-79
2023/04/24 00:15:05;;;;;;;6.80;4.50;;;9.50;99.90;;;;;;4986680;28;37550;-78
2023/04/24 00:17:31;;;;;;;8.80;4.67;;;9.50;99.90;;;;;;5007161;28;38106;-80
2023/04/24 00:20:04;;;;;;;7.47;4.57;;;9.50;99.90;;;;;;4984469;28;38079;-79
2023/04/24 00:22:30;;;;;;;;;;;9.50;99.90;;;;;;5003748;28;37860;-79
2023/04/24 00:24:57;;;;;;;9.57;4.67;;;9.50;99.90;;;;;;4995380;28;37269;-79
2023/04/24 00:27:23;;;;;;;7.27;5.00;;;9.50;99.90;;;;;;5002317;28;38397;-79
2023/04/24 00:29:49;;;;;;;8.67;5.43;;;9.60;99.90;;;;;;5007513;28;39460;-79
2023/04/24 00:32:17;;;;;;;7.83;4.67;;;9.60;99.90;;;;;;4992897;28;37104;-79
2023/04/24 00:34:43;;;;;;;7.50;5.03;;;9.50;99.90;;;;;;5008544;28;37804;-79
2023/04/24 00:37:09;;;;;;;8.10;5.37;;;9.50;99.90;;;;;;5013975;28;38915;-79
2023/04/24 00:39:35;;;;;;;7.23;5.87;;;9.60;99.90;;;;;;5015993;28;38083;-78
2023/04/24 00:42:01;;;;;;;7.10;4.97;;;9.50;99.90;;;;;;4996435;28;36948;-78
2023/04/24 00:44:28;;;;;;;6.20;4.30;;;9.50;99.90;;;;;;5008399;28;37617;-78
2023/04/24 00:46:55;;;;;;;8.33;4.60;;;9.50;99.90;;;;;;5018254;28;38967;-79
2023/04/24 00:49:22;;;;;;;8.23;4.70;;;9.50;99.90;;;;;;4998737;28;38723;-77
2023/04/24 00:51:49;;;;;;;9.20;5.27;;;9.50;99.90;;;;;;5018042;28;38847;-78
2023/04/24 00:54:15;;;;;;;10.83;5.40;;;9.50;99.90;;;;;;5014360;28;38313;-77
2023/04/24 00:56:43;;;;;;;9.97;6.10;;;9.50;99.90;;;;;;5013387;28;39353;-77
2023/04/24 00:59:10;;;;;;;9.97;6.10;;;9.50;99.90;;;;;;4992099;28;37013;-77
2023/04/24 01:04:06;;;;;;;13.57;7.00;;;9.50;99.90;;;;;;4809917;28;36701;-76
2023/04/24 01:06:34;;;;;;;11.20;7.47;;;9.50;99.90;;;;;;4985280;28;39674;-76
2023/04/24 01:09:00;;;;;;;13.47;9.30;;;9.40;99.90;;;;;;4967828;28;37435;-76
2023/04/24 01:11:26;;;;;;;14.97;8.60;;;9.50;99.90;;;;;;4989425;28;37825;-76
2023/04/24 01:13:52;;;;;;;15.43;8.70;;;9.50;99.90;;;;;;4988714;28;37653;-77
2023/04/24 01:16:20;;;;;;;13.97;8.50;;;9.50;99.90;;;;;;4971698;28;41135;-77
2023/04/24 01:18:47;;;;;;;17.37;9.07;;;9.50;99.90;;;;;;4987728;28;39162;-75
2023/04/24 01:21:16;;;;;;;12.50;8.70;;;9.50;99.90;;;;;;4971446;28;38503;-76
2023/04/24 01:23:44;;;;;;;12.07;8.33;;;9.50;99.90;;;;;;4986865;28;38644;-76
2023/04/24 01:26:11;;;;;;;13.57;8.40;;;9.50;99.90;;;;;;4989745;28;39507;-76
2023/04/24 01:28:37;;;;;;;15.97;9.17;;;9.50;99.90;;;;;;4981963;28;38371;-76
2023/04/24 01:31:03;;;;;;;10.80;8.60;;;9.50;99.90;;;;;;4985207;28;38399;-77
2023/04/24 01:33:29;;;;;;;9.97;7.60;;;9.50;99.90;;;;;;4961834;28;37124;-76
2023/04/24 01:35:56;;;;;;;13.80;7.43;;;9.40;99.90;;;;;;4964531;28;37832;-77
2023/04/24 01:38:22;;;;;;;12.43;7.77;;;9.50;99.90;;;;;;4977407;28;38700;-77
2023/04/24 01:40:49;;;;;;;15.63;9.60;;;9.50;99.90;;;;;;4971837;28;37995;-76
2023/04/24 01:43:16;;;;;;;16.00;10.73;;;9.50;99.90;;;;;;4970504;28;36063;-77
2023/04/24 01:45:42;;;;;;;18.13;10.90;;;9.50;99.90;;;;;;4983745;28;38662;-78
2023/04/24 01:48:08;;;;;;;17.73;11.93;;;9.50;99.90;;;;;;4991370;28;39425;-77
2023/04/24 01:50:34;;;;;;;17.50;11.43;;;9.60;99.90;;;;;;4988544;28;37871;-78
2023/04/24 01:53:00;;;;;;;15.93;12.17;;;9.60;99.90;;;;;;4990240;28;36642;-78
2023/04/24 01:55:27;;;;;;;19.53;13.80;;;9.60;99.90;;;;;;4988991;28;47497;-78
2023/04/24 01:57:55;;;;;;;20.67;14.10;;;9.60;99.90;;;;;;4973122;28;37163;-78
2023/04/24 02:00:22;;;;;;;20.80;13.00;;;9.60;99.90;;;;;;4988484;28;37103;-78
2023/04/24 02:02:48;;;;;;;16.80;10.47;;;9.60;99.90;;;;;;4986797;28;36159;-77
2023/04/24 02:05:14;;;;;;;18.70;9.63;;;9.60;99.90;;;;;;4972826;28;38005;-78
2023/04/24 02:07:40;;;;;;;16.43;8.37;;;9.60;99.90;;;;;;4995015;28;38458;-79
2023/04/24 02:10:07;;;;;;;14.95;8.13;;;9.60;99.90;;;;;;4981918;28;38260;-80
2023/04/24 02:12:33;;;;;;;8.53;5.23;;;9.50;99.90;;;;;;4973133;28;36079;-80
2023/04/24 02:14:59;;;;;;;12.57;5.90;;;9.50;99.90;;;;;;4969293;28;37708;-79
2023/04/24 02:17:25;;;;;;;7.07;4.40;;;9.50;99.90;;;;;;4972026;28;37495;-77
2023/04/24 02:19:51;;;;;;;10.17;4.63;;;9.50;99.90;;;;;;4975430;28;38758;-79
2023/04/24 02:22:18;;;;;;;8.47;4.07;;;9.50;99.90;;;;;;4951645;28;40379;-77
2023/04/24 02:24:44;;;;;;;6.33;3.70;;;9.50;99.90;;;;;;4984521;28;37497;-77
2023/04/24 02:27:11;;;;;;;11.33;4.87;;;9.50;99.90;;;;;;4983858;28;38933;-80
2023/04/24 02:29:37;;;;;;;9.50;3.93;;;9.50;99.90;;;;;;4984979;28;37060;-76
2023/04/24 02:32:03;;;;;;;6.90;4.40;;;9.50;99.90;;;;;;4985252;28;36346;-79
2023/04/24 02:34:30;;;;;;;11.00;4.53;;;9.50;99.90;;;;;;4985763;28;38817;-77
2023/04/24 02:36:56;;;;;;;5.53;4.67;;;9.40;99.90;;;;;;4986422;28;38564;-77
2023/04/24 02:39:22;;;;;;;10.67;6.03;;;9.40;99.90;;;;;;4967275;28;38241;-80
2023/04/24 02:41:48;;;;;;;11.27;7.05;;;9.40;99.90;;;;;;4967267;28;37075;-78
2023/04/24 02:44:14;;;;;;;10.00;7.17;;;9.40;99.90;;;;;;4992854;28;39807;-80
2023/04/24 02:46:41;;;;;;;8.33;6.80;;;9.40;99.90;;;;;;4969673;28;37287;-80
2023/04/24 02:49:07;;;;;;;10.97;6.60;;;9.40;99.90;;;;;;4976519;28;38875;-79
2023/04/24 02:51:33;;;;;;;10.60;7.63;;;9.40;99.90;;;;;;4967910;28;35992;-79
2023/04/24 02:53:59;;;;;;;8.60;6.33;;;9.40;99.90;;;;;;4982753;28;38587;-80
2023/04/24 02:56:26;;;;;;;6.87;5.70;;;9.40;99.90;;;;;;4986992;28;38033;-79
2023/04/24 02:58:52;;;;;;;6.23;4.10;;;9.40;99.90;;;;;;4998702;28;38510;-79
2023/04/24 03:01:18;;;;;;;4.90;3.10;;;9.20;99.90;;;;;;4970892;28;37591;-80
2023/04/24 03:03:44;;;;;;;4.17;3.00;;;9.20;99.90;;;;;;4976751;28;38750;-78
2023/04/24 03:06:10;;;;;;;6.97;2.80;;;9.20;99.90;;;;;;4973149;28;38594;-80
2023/04/24 03:08:36;;;;;;;2.43;1.70;;;9.20;99.90;;;;;;4991253;28;37630;-78
2023/04/24 03:11:02;;;;;;;3.00;1.60;;;9.10;99.90;;;;;;4981901;28;37259;-79
2023/04/24 03:13:29;;;;;;;2.27;1.50;;;9.10;99.90;;;;;;4984119;28;38434;-78
2023/04/24 03:15:55;;;;;;;3.73;1.67;;;9.10;99.90;;;;;;4970437;28;37762;-80
2023/04/24 03:18:21;;;;;;;3.43;1.77;;;9.10;99.90;;;;;;4970255;28;38530;-78
2023/04/24 03:20:47;;;;;;;2.60;1.30;;;9.10;99.90;;;;;;4971511;28;36123;-79
2023/04/24 03:23:13;;;;;;;1.90;1.70;;;9.10;99.90;;;;;;4975312;28;37637;-81
2023/04/24 03:25:40;;;;;;;4.80;1.60;;;9.10;99.90;;;;;;4978542;28;39330;-77
2023/04/24 03:28:06;;;;;;;4.23;1.47;;;9.00;99.90;;;;;;4967894;28;37031;-79
2023/04/24 03:30:32;;;;;;;4.30;1.70;;;9.00;99.90;;;;;;4960718;28;34600;-79
2023/04/24 03:32:58;;;;;;;6.13;2.40;;;9.00;99.90;;;;;;4983454;28;38917;-78
2023/04/24 03:35:25;;;;;;;4.83;2.20;;;9.10;99.90;;;;;;4989080;28;38030;-81
2023/04/24 03:37:51;;;;;;;5.80;2.57;;;9.10;99.90;;;;;;4984185;28;38404;-80
2023/04/24 03:40:17;;;;;;;7.07;3.27;;;9.10;99.90;;;;;;4976863;28;36638;-80
2023/04/24 03:42:43;;;;;;;10.27;4.53;;;9.10;99.90;;;;;;4984217;28;39238;-80
2023/04/24 03:45:09;;;;;;;11.43;5.50;;;9.20;99.90;;;;;;4977970;28;37484;-81
2023/04/24 03:47:35;;;;;;;12.27;6.27;;;9.20;99.90;;;;;;4985308;28;37398;-79
2023/04/24 03:50:02;;;;;;;13.63;7.50;;;9.30;99.90;;;;;;4987538;28;36218;-81
2023/04/24 03:52:28;;;;;;;14.80;7.77;;;9.30;99.90;;;;;;4990448;28;38835;-80
2023/04/24 03:54:55;;;;;;;17.80;7.63;;;9.30;99.90;;;;;;4981047;28;37610;-81
2023/04/24 03:57:21;;;;;;;14.47;5.70;;;9.30;99.90;;;;;;4981054;28;39064;-80
2023/04/24 03:59:47;;;;;;;14.30;5.67;;;9.40;99.90;;;;;;4982534;28;37175;-80
2023/04/24 04:02:14;;;;;;;11.50;3.63;;;9.40;99.90;;;;;;4980821;28;40100;-79
2023/04/24 04:04:41;;;;;;;9.27;3.47;;;9.40;99.90;;;;;;4983261;28;20109;-79
2023/04/24 04:07:07;;;;;;;14.13;7.10;;;9.30;99.90;;;;;;4982567;28;38513;-79
2023/04/24 04:09:33;;;;;;;16.73;8.33;;;9.30;99.90;;;;;;4983140;28;37860;-81
2023/04/24 04:12:00;;;;;;;11.43;5.63;;;9.30;99.90;;;;;;4989106;28;39389;-79
2023/04/24 04:14:27;;;;;;;13.57;5.10;;;9.30;99.90;;;;;;4977554;28;38357;-80
2023/04/24 04:16:53;;;;;;;12.20;5.83;;;9.20;99.90;;;;;;4977918;28;37790;-80
2023/04/24 04:19:19;;;;;;;14.63;6.17;;;9.20;99.90;;;;;;4977865;28;36912;-78
2023/04/24 04:21:45;;;;;;;14.70;5.10;;;9.10;99.90;;;;;;4977880;28;39605;-76
2023/04/24 04:24:12;;;;;;;11.37;4.53;;;9.10;99.90;;;;;;4975394;28;39589;-77
2023/04/24 04:26:38;;;;;;;17.90;5.50;;;9.10;99.90;;;;;;4988849;28;38307;-78
2023/04/24 04:29:06;;;;;;;14.70;4.73;;;9.00;99.90;;;;;;4959732;28;36133;-78
2023/04/24 04:31:32;;;;;;;13.73;4.80;;;9.00;99.90;;;;;;4961808;28;37642;-79
2023/04/24 04:33:58;;;;;;;12.60;5.37;;;8.90;99.90;;;;;;4988228;28;39071;-77
2023/04/24 04:36:25;;;;;;;17.63;6.13;;;8.80;99.90;;;;;;4986683;28;38754;-78
2023/04/24 04:38:51;;;;;;;14.30;6.27;;;8.80;99.90;;;;;;4994445;28;37077;-77
2023/04/24 04:41:18;;;;;;;13.17;5.60;;;8.80;99.90;;;;;;4990652;28;38976;-79
2023/04/24 04:43:44;;;;;;;13.60;6.13;;;8.70;99.90;;;;;;4976169;28;38732;-78
2023/04/24 04:46:11;;;;;;;12.27;5.90;;;8.70;99.90;;;;;;4974004;28;36919;-77
2023/04/24 04:48:37;;;;;;;15.27;6.07;;;8.70;99.90;;;;;;4995420;28;35894;-79
2023/04/24 04:51:04;;;;;;;17.80;8.70;;;8.70;99.90;;;;;;4977504;28;38723;-77
2023/04/24 04:53:30;;;;;;;19.87;9.70;;;8.70;99.90;;;;;;4976558;28;38051;-78
2023/04/24 04:55:56;;;;;;;25.17;9.73;;;8.70;99.90;;;;;;4980556;28;38417;-80
2023/04/24 04:58:22;;;;;;;22.00;9.57;;;8.60;99.90;;;;;;4978412;28;37244;-79
2023/04/24 05:00:49;;;;;;;18.53;10.00;;;8.60;99.90;;;;;;4982507;28;37496;-78
2023/04/24 05:03:16;;;;;;;27.43;10.30;;;8.50;99.90;;;;;;4976981;28;37375;-76
2023/04/24 05:05:42;;;;;;;19.13;11.43;;;8.50;99.90;;;;;;4986229;28;37973;-76
2023/04/24 05:08:08;;;;;;;27.17;13.07;;;8.50;99.90;;;;;;4990273;28;37653;-77
2023/04/24 05:10:36;;;;;;;24.70;13.73;;;8.50;99.90;;;;;;5000721;28;39708;-75
2023/04/24 05:13:04;;;;;;;33.33;15.83;;;8.50;99.90;;;;;;4976646;28;37497;-79
2023/04/24 05:15:30;;;;;;;30.83;15.37;;;8.40;99.90;;;;;;4994739;28;36947;-80
2023/04/24 05:17:56;;;;;;;37.27;15.63;;;8.40;99.90;;;;;;4994255;28;38147;-81
2023/04/24 05:20:23;;;;;;;32.17;16.20;;;8.40;99.90;;;;;;4971341;28;39298;-77
2023/04/24 05:22:50;;;;;;;32.90;16.80;;;8.30;99.90;;;;;;4975932;28;40235;-78
2023/04/24 05:25:19;;;;;;;42.77;17.30;;;8.40;99.90;;;;;;4975479;28;37152;-76
2023/04/24 05:27:46;;;;;;;36.30;17.00;;;8.40;99.90;;;;;;4985846;28;36951;-77
2023/04/24 05:30:12;;;;;;;36.57;17.63;;;8.40;99.90;;;;;;4985211;28;37847;-77
2023/04/24 05:32:39;;;;;;;42.67;17.03;;;8.40;99.90;;;;;;4978934;28;37498;-77
2023/04/24 05:35:05;;;;;;;33.50;16.63;;;8.40;99.90;;;;;;4994253;28;38274;-77
2023/04/24 05:37:31;;;;;;;36.13;16.03;;;8.50;99.90;;;;;;4965302;28;47736;-78
2023/04/24 05:39:57;;;;;;;46.93;17.47;;;8.50;99.90;;;;;;4976468;28;37717;-77
2023/04/24 05:42:24;;;;;;;33.07;15.50;;;8.50;99.90;;;;;;4975523;28;38413;-77
2023/04/24 05:44:50;;;;;;;32.43;15.40;;;8.50;99.90;;;;;;4963589;28;37450;-76
2023/04/24 05:47:16;;;;;;;40.80;15.70;;;8.50;99.90;;;;;;4969350;28;36226;-74
2023/04/24 05:49:42;;;;;;;33.77;16.07;;;8.50;99.90;;;;;;4979686;28;37812;-74
2023/04/24 05:52:09;;;;;;;31.50;15.20;;;8.50;99.90;;;;;;4973730;28;39165;-76
2023/04/24 05:54:35;;;;;;;28.47;14.10;;;8.50;99.90;;;;;;4971738;28;38452;-76
2023/04/24 05:57:07;;;;;;;34.77;12.43;;;8.50;99.90;;;;;;4970186;28;36642;-76
2023/04/24 05:59:39;;;;;;;40.37;12.33;;;8.50;99.90;;;;;;4994234;28;48645;-76
2023/04/24 06:02:05;;;;;;;32.97;9.80;;;8.50;99.90;;;;;;4983629;28;38935;-76
2023/04/24 06:04:32;;;;;;;37.17;10.13;;;8.50;99.90;;;;;;4989794;28;37721;-75
2023/04/24 06:06:59;;;;;;;32.73;9.43;;;8.50;99.90;;;;;;4989944;28;36999;-77
2023/04/24 06:09:25;;;;;;;28.60;9.17;;;8.40;99.90;;;;;;4985796;28;39342;-75
2023/04/24 06:11:54;;;;;;;33.10;10.13;;;8.40;99.90;;;;;;4981487;28;37208;-75
2023/04/24 06:14:21;;;;;;;26.70;7.63;;;8.40;99.90;;;;;;4987109;28;39411;-75
2023/04/24 06:16:47;;;;;;;23.00;8.40;;;8.40;99.90;;;;;;4987932;28;36437;-76
2023/04/24 06:19:13;;;;;;;30.60;8.67;;;8.40;99.90;;;;;;4985755;28;38683;-75
2023/04/24 06:21:39;;;;;;;30.80;8.50;;;8.40;99.90;;;;;;5001255;28;38943;-76
2023/04/24 06:24:05;;;;;;;39.83;9.10;;;8.40;99.90;;;;;;4988618;28;37151;-77
2023/04/24 06:26:31;;;;;;;24.13;8.23;;;8.50;99.90;;;;;;4975931;28;35980;-76
2023/04/24 06:28:59;;;;;;;25.30;7.43;;;8.50;99.90;;;;;;4988723;28;39865;-75
2023/04/24 06:31:25;;;;;;;31.93;7.67;;;8.50;99.90;;;;;;4986955;28;37698;-76
2023/04/24 06:33:51;;;;;;;26.97;8.70;;;8.50;99.90;;;;;;4985042;28;38551;-77
2023/04/24 06:36:17;;;;;;;36.87;8.80;;;8.50;99.90;;;;;;4993492;28;38199;-76
2023/04/24 06:38:43;;;;;;;30.80;8.20;;;8.50;99.90;;;;;;4983855;28;38927;-77
2023/04/24 06:41:10;;;;;;;29.80;7.60;;;8.50;99.90;;;;;;4986273;28;37198;-76
2023/04/24 06:43:36;;;;;;;26.47;6.43;;;8.60;99.90;;;;;;4988498;28;37965;-75
2023/04/24 06:46:03;;;;;;;28.23;7.13;;;8.60;99.90;;;;;;4986204;28;37460;-76
2023/04/24 06:48:29;;;;;;;26.23;7.30;;;8.60;99.90;;;;;;4988771;28;39740;-77
2023/04/24 06:50:55;;;;;;;34.17;6.90;;;8.70;99.90;;;;;;4988193;28;38331;-76
2023/04/24 06:53:21;;;;;;;39.87;8.13;;;8.80;99.90;;;;;;4985365;28;37258;-76
2023/04/24 06:55:48;;;;;;;31.47;6.43;;;8.80;99.90;;;;;;4996528;28;38187;-76
2023/04/24 06:58:15;;;;;;;24.53;6.07;;;8.70;99.90;;;;;;4983712;28;38599;-78
2023/04/24 07:00:41;;;;;;;31.87;6.17;;;8.80;99.90;;;;;;4960315;28;37533;-77
2023/04/24 07:03:07;;;;;;;40.40;6.93;;;8.80;99.90;;;;;;4965642;28;37283;-77
2023/04/24 07:05:34;;;;;;;29.17;5.03;;;8.90;99.90;;;;;;4988559;28;36657;-75
2023/04/24 07:08:01;;;;;;;26.43;5.60;;;8.80;99.90;;;;;;4968440;28;39072;-76
2023/04/24 07:10:28;;;;;;;23.63;5.17;;;8.90;99.90;;;;;;4986715;28;47659;-76
2023/04/24 07:12:56;;;;;;;20.43;4.20;;;8.80;99.90;;;;;;4982180;28;37815;-77
2023/04/24 07:15:23;;;;;;;22.27;4.30;;;8.80;99.90;;;;;;4968664;28;36125;-74
2023/04/24 07:17:49;;;;;;;17.83;4.00;;;8.90;99.90;;;;;;4970990;28;41216;-76
2023/04/24 07:20:15;;;;;;;30.67;6.10;;;9.00;99.90;;;;;;4967626;28;37316;-75
2023/04/24 07:22:43;;;;;;;25.20;5.10;;;9.00;99.90;;;;;;4987406;28;38182;-76
2023/04/24 07:25:09;;;;;;;22.20;4.40;;;9.00;99.90;;;;;;4983366;28;38283;-75
2023/04/24 07:27:36;;;;;;;25.87;3.73;;;9.00;99.90;;;;;;4973949;28;39115;-75
2023/04/24 07:30:03;;;;;;;16.97;3.90;;;8.90;99.90;;;;;;4972827;28;38783;-75
2023/04/24 07:32:30;;;;;;;21.30;3.77;;;8.90;99.90;;;;;;4989168;28;37937;-75
2023/04/24 07:34:56;;;;;;;23.37;4.20;;;9.00;99.90;;;;;;4977702;28;35831;-74
2023/04/24 07:37:24;;;;;;;19.63;3.70;;;9.10;99.90;;;;;;4962309;28;36799;-75
2023/04/24 07:39:50;;;;;;;15.10;3.43;;;9.10;99.90;;;;;;4969958;28;39179;-74
2023/04/24 07:42:16;;;;;;;17.47;3.47;;;9.00;99.90;;;;;;4979143;28;39017;-75
2023/04/24 07:44:42;;;;;;;20.57;3.60;;;8.90;99.90;;;;;;4957114;28;36064;-74
2023/04/24 07:47:08;;;;;;;22.13;4.17;;;8.90;99.90;;;;;;4969924;28;39374;-75
2023/04/24 07:49:35;;;;;;;24.00;4.43;;;8.80;99.90;;;;;;4975666;28;38008;-75
2023/04/24 07:52:02;;;;;;;20.40;4.20;;;8.80;99.90;;;;;;4983352;28;38239;-73
2023/04/24 07:54:28;;;;;;;16.20;3.33;;;8.70;99.90;;;;;;4965813;28;47276;-74
2023/04/24 07:56:55;;;;;;;24.03;3.53;;;8.70;99.90;;;;;;4977457;28;39252;-74
2023/04/24 07:59:21;;;;;;;20.10;4.40;;;8.60;99.90;;;;;;4965234;28;39007;-73
2023/04/24 08:01:47;;;;;;;25.50;4.27;;;8.70;99.90;;;;;;4985430;28;38016;-73
2023/04/24 08:04:13;;;;;;;21.10;3.47;;;8.80;99.90;;;;;;4982903;28;37133;-73
2023/04/24 08:06:39;;;;;;;19.57;4.27;;;8.90;99.90;;;;;;4983485;28;39347;-73
2023/04/24 08:09:05;;;;;;;20.57;3.70;;;9.00;99.90;;;;;;4976975;28;38688;-75
2023/04/24 08:11:32;;;;;;;16.57;4.47;;;9.10;99.90;;;;;;4961165;28;36929;-75
2023/04/24 08:13:58;;;;;;;16.43;2.93;;;9.20;99.90;;;;;;4965576;28;36827;-75
2023/04/24 08:16:24;;;;;;;12.93;2.73;;;9.30;99.90;;;;;;4956449;28;37303;-75
2023/04/24 08:18:50;;;;;;;10.97;2.47;;;9.40;99.90;;;;;;4966567;28;37497;-77
2023/04/24 08:21:18;;;;;;;19.90;5.13;;;9.60;99.90;;;;;;4967073;28;37300;-77
2023/04/24 08:23:47;;;;;;;13.40;3.50;;;9.50;99.90;;;;;;4977787;28;36954;-76
2023/04/24 08:26:13;;;;;;;15.07;3.17;;;9.40;99.90;;;;;;4967345;28;37533;-77
2023/04/24 08:28:40;;;;;;;15.37;2.90;;;9.30;99.90;;;;;;4965875;28;37146;-76
2023/04/24 08:31:06;;;;;;;9.17;2.30;;;9.40;99.90;;;;;;4967808;28;38111;-77
2023/04/24 08:33:34;;;;;;;9.80;2.30;;;9.20;99.90;;;;;;4981374;28;37978;-78
2023/04/24 08:36:05;;;;;;;12.90;2.53;;;9.10;99.90;;;;;;4989935;28;39482;-77
2023/04/24 08:38:31;;;;;;;6.73;2.10;;;9.00;99.90;;;;;;4968895;28;48573;-72
2023/04/24 08:41:01;;;;;;;13.67;2.83;;;8.90;99.90;;;;;;4985177;28;37255;-74
2023/04/24 08:43:27;;;;;;;8.90;2.07;;;9.00;99.90;;;;;;4982714;28;48137;-74
2023/04/24 08:45:56;;;;;;;13.27;2.43;;;9.10;99.90;;;;;;4985662;28;39511;-74
2023/04/24 08:48:22;;;;;;;11.57;2.40;;;9.20;99.90;;;;;;4983927;28;39171;-75
2023/04/24 08:50:51;;;;;;;7.87;1.40;;;9.30;99.90;;;;;;4987771;28;38109;-74
2023/04/24 08:53:18;;;;;;;10.10;1.80;;;9.30;99.90;;;;;;4964435;28;36147;-74
2023/04/24 08:55:47;;;;;;;8.37;1.80;;;9.30;99.90;;;;;;4984984;28;38629;-74
2023/04/24 08:58:16;;;;;;;9.07;2.10;;;9.30;99.90;;;;;;4969873;28;37420;-73
2023/04/24 09:00:46;;;;;;;7.50;2.00;;;9.40;99.90;;;;;;4984895;28;38140;-77
2023/04/24 09:03:22;;;;;;;8.83;1.90;;;9.40;99.90;;;;;;4972536;28;36043;-77
2023/04/24 09:05:50;;;;;;;8.60;1.47;;;9.50;99.90;;;;;;4980193;28;37957;-77
2023/04/24 09:08:18;;;;;;;5.77;0.97;;;9.70;99.90;;;;;;4985806;28;39090;-77
2023/04/24 09:10:44;;;;;;;6.63;1.40;;;9.70;99.90;;;;;;4963417;28;36641;-78
2023/04/24 09:13:11;;;;;;;8.10;1.60;;;9.60;99.90;;;;;;4965461;28;37638;-77
2023/04/24 09:15:40;;;;;;;6.23;1.13;;;9.30;99.90;;;;;;4969914;28;37825;-76
2023/04/24 09:18:06;;;;;;;5.40;1.27;;;9.00;99.90;;;;;;4987031;28;39283;-77
2023/04/24 09:20:33;;;;;;;4.87;1.20;;;9.00;99.90;;;;;;4985397;28;39117;-79
2023/04/24 09:22:59;;;;;;;6.20;1.83;;;9.20;99.90;;;;;;4980281;28;38538;-78
2023/04/24 09:25:32;;;;;;;8.90;1.70;;;9.40;99.90;;;;;;4982378;28;39576;-78
2023/04/24 09:28:02;;;;;;;3.23;1.70;;;9.50;99.90;;;;;;4965101;28;37610;-76
2023/04/24 09:30:29;;;;;;;6.00;2.00;;;9.80;99.90;;;;;;4971419;28;48435;-76
2023/04/24 09:33:13;;;;;;;7.25;1.80;;;9.90;99.90;;;;;;4986120;28;37620;-78
2023/04/24 09:35:48;;;;;;;4.18;0.90;;;10.10;99.90;;;;;;4981288;28;49100;-78
2023/04/24 09:38:14;;;;;;;7.50;1.00;;;9.80;99.90;;;;;;4969304;28;38996;-79
2023/04/24 09:40:41;;;;;;;4.13;1.40;;;9.60;99.90;;;;;;4976442;28;39195;-79
2023/04/24 09:43:10;;;;;;;6.23;1.30;;;9.40;99.90;;;;;;4968266;28;36253;-77
2023/04/24 09:45:39;;;;;;;6.57;1.33;;;9.10;99.90;;;;;;4983011;28;39610;-76
2023/04/24 09:48:08;;;;;;;3.53;0.80;;;9.10;99.90;;;;;;4985849;28;38648;-76
2023/04/24 09:50:35;;;;;;;7.00;1.10;;;9.10;99.90;;;;;;4981333;28;38138;-75
2023/04/24 09:53:03;;;;;;;4.90;1.00;;;9.30;99.90;;;;;;4967291;28;37050;-76
2023/04/24 09:55:30;;;;;;;4.78;0.98;;;9.60;99.90;;;;;;4984399;28;48875;-76
2023/04/24 09:58:00;;;;;;;4.88;0.90;;;9.90;99.90;;;;;;4985658;28;39466;-76
2023/04/24 10:00:28;;;;;;;3.83;0.70;;;10.20;99.90;;;;;;4979995;28;37578;-76
2023/04/24 10:02:59;;;;;;;6.70;1.17;;;10.60;99.90;;;;;;4987197;28;35951;-76
2023/04/24 10:05:32;;;;;;;22.52;2.38;;;11.00;99.90;;;;;;4960722;28;37749;-78
2023/04/24 10:08:07;;;;;;;3.88;1.13;;;11.20;99.90;;;;;;4969350;28;37080;-78
2023/04/24 10:10:36;;;;;;;6.20;0.98;;;11.30;99.90;;;;;;4966997;28;48581;-78
2023/04/24 10:13:03;;;;;;;10.57;1.30;;;10.90;99.90;;;;;;4982111;28;38175;-78
2023/04/24 10:15:30;;;;;;;10.95;2.58;;;10.30;99.90;;;;;;4968107;28;38908;-78
2023/04/24 10:17:59;;;;;;;7.90;1.50;;;10.10;99.90;;;;;;4982308;28;39353;-77
2023/04/24 10:20:30;;;;;;;17.48;1.80;;;10.00;99.90;;;;;;4966191;28;38550;-76
2023/04/24 10:22:57;;;;;;;11.53;1.53;;;10.00;99.90;;;;;;4987529;28;37564;-77
2023/04/24 10:25:27;;;;;;;10.73;1.60;;;10.00;99.90;;;;;;4965203;28;39701;-76
2023/04/24 10:27:59;;;;;;;12.27;2.00;;;9.90;99.90;;;;;;4979990;28;37420;-75
2023/04/24 10:30:36;;;;;;;11.93;1.13;;;9.80;99.90;;;;;;4978798;28;38715;-78
2023/04/24 10:33:04;;;;;;;4.63;0.90;;;9.80;99.90;;;;;;4972101;28;36238;-78
2023/04/24 10:35:37;;;;;;;8.37;1.50;;;9.90;99.90;;;;;;4984480;28;39021;-78
2023/04/24 10:38:09;;;;;;;8.20;1.25;;;10.10;99.90;;;;;;4983591;28;38086;-78
2023/04/24 10:40:36;;;;;;;5.50;1.13;;;10.40;99.90;;;;;;4984605;28;37995;-78
2023/04/24 10:43:06;;;;;;;12.77;1.83;;;10.60;99.90;;;;;;4967055;28;37128;-78
2023/04/24 10:45:32;;;;;;;6.10;1.23;;;10.90;99.90;;;;;;4964040;28;39082;-78
2023/04/24 10:48:02;;;;;;;7.53;1.60;;;11.20;99.90;;;;;;4961088;28;38830;-79
2023/04/24 10:50:41;;;;;;;8.05;1.38;;;11.40;99.90;;;;;;4978420;28;48419;-78
2023/04/24 10:53:12;;;;;;;5.15;1.05;;;11.40;99.90;;;;;;4969281;28;37622;-79
2023/04/24 10:55:43;;;;;;;8.15;1.00;;;11.20;99.90;;;;;;4965491;28;37701;-79
2023/04/24 10:58:10;;;;;;;3.80;0.90;;;11.00;99.90;;;;;;4973532;28;39194;-79
2023/04/24 11:00:41;;;;;;;3.95;1.00;;;11.20;99.90;;;;;;4989927;28;36803;-78
2023/04/24 11:03:27;;;;;;;8.90;1.13;;;11.40;99.90;;;;;;4969969;28;37754;-78
2023/04/24 11:05:58;;;;;;;5.88;1.10;;;11.00;99.90;;;;;;4982346;28;39238;-78
2023/04/24 11:08:30;;;;;;;5.63;1.00;;;10.70;99.90;;;;;;4983212;28;39159;-78
2023/04/24 11:11:04;;;;;;;5.50;1.15;;;10.50;99.90;;;;;;4980856;28;36771;-75
2023/04/24 11:13:55;;;;;;;5.45;1.35;;;10.20;99.90;;;;;;4980790;28;49050;-75
2023/04/24 11:16:25;;;;;;;7.78;1.52;;;9.90;99.90;;;;;;4982981;28;39509;-79
2023/04/24 11:19:06;;;;;;;17.60;1.60;;;9.50;99.90;;;;;;4988108;28;37579;-74
2023/04/24 11:21:38;;;;;;;8.02;1.70;;;9.30;99.90;;;;;;4978412;28;48766;-77
2023/04/24 11:24:35;;;;;;;8.68;1.95;;;9.40;99.90;;;;;;4980011;28;38047;-77
2023/04/24 11:27:04;;;;;;;7.63;1.83;;;9.30;99.90;;;;;;4982098;28;37822;-77
2023/04/24 11:29:55;;;;;;;11.83;2.43;;;9.30;99.90;;;;;;4979616;28;49701;-76
2023/04/24 11:32:37;;;;;;;10.25;1.42;;;9.40;99.90;;;;;;4979259;28;38958;-76
2023/04/24 11:35:16;;;;;;;6.38;1.20;;;9.60;99.90;;;;;;4967116;28;36586;-72
2023/04/24 11:37:48;;;;;;;8.20;1.70;;;9.80;99.90;;;;;;4979766;28;47232;-77
2023/04/24 11:40:15;;;;;;;;;;;10.30;99.90;;;;;;4969608;28;37289;-78
2023/04/24 11:42:52;;;;;;;6.32;1.30;;;10.50;99.90;;;;;;4967305;28;36675;-78
2023/04/24 11:45:22;;;;;;;8.23;1.73;;;10.40;99.90;;;;;;4973118;28;36741;-78
2023/04/24 11:47:48;;;;;;;6.93;1.33;;;10.30;99.90;;;;;;4966862;28;38048;-78
2023/04/24 11:50:17;;;;;;;4.30;1.15;;;10.50;99.90;;;;;;4984668;28;39266;-78
2023/04/24 11:52:45;;;;;;;5.85;1.42;;;10.80;99.90;;;;;;4984850;28;38560;-77
2023/04/24 11:55:14;;;;;;;9.18;1.52;;;10.90;99.90;;;;;;4972833;28;37972;-78
2023/04/24 11:57:44;;;;;;;5.45;1.40;;;11.20;99.90;;;;;;4985629;28;38604;-77
2023/04/24 12:00:17;;;;;;;7.72;2.08;;;11.60;99.90;;;;;;4983082;28;38265;-78
2023/04/24 12:02:43;;;;;;;7.45;1.63;;;11.70;99.90;;;;;;4978778;28;39047;-79
2023/04/24 12:05:09;;;;;;;4.93;1.20;;;11.40;99.90;;;;;;4986213;28;36995;-77
2023/04/24 12:07:42;;;;;;;7.20;1.27;;;11.20;99.90;;;;;;4971144;28;39053;-75
2023/04/24 12:10:09;;;;;;;7.32;2.15;;;11.00;99.90;;;;;;4983661;28;36882;-78
2023/04/24 12:12:35;;;;;;;8.65;1.98;;;10.70;99.90;;;;;;4986959;28;37028;-78
2023/04/24 12:15:02;;;;;;;6.40;1.60;;;10.50;99.90;;;;;;4987705;28;37485;-77
2023/04/24 12:17:33;;;;;;;8.50;1.52;;;10.50;99.90;;;;;;4982087;28;39945;-78
2023/04/24 12:20:02;;;;;;;6.75;1.15;;;10.30;99.90;;;;;;4983380;28;39588;-78
2023/04/24 12:22:43;;;;;;;7.38;1.45;;;10.40;99.90;;;;;;4963970;28;37664;-78
2023/04/24 12:25:11;;;;;;;9.07;1.38;;;10.80;99.90;;;;;;4992732;28;37011;-77
2023/04/24 12:27:37;;;;;;;6.50;1.40;;;11.00;99.90;;;;;;4986153;28;39586;-77
2023/04/24 12:30:05;;;;;;;9.82;2.25;;;11.30;99.90;;;;;;4981706;28;39577;-77
2023/04/24 12:32:32;;;;;;;6.72;1.65;;;11.80;99.90;;;;;;4982144;28;46857;-78
2023/04/24 12:34:58;;;;;;;8.43;1.70;;;11.90;99.90;;;;;;4978889;28;36971;-78
2023/04/24 12:37:26;;;;;;;5.85;1.60;;;12.10;99.90;;;;;;4974244;28;39868;-78
2023/04/24 12:40:08;;;;;;;8.95;1.98;;;12.00;99.90;;;;;;4978634;28;38612;-76
2023/04/24 12:42:41;;;;;;;10.35;1.95;;;11.70;99.90;;;;;;4964744;28;47150;-77
2023/04/24 12:45:07;;;;;;;8.10;1.33;;;11.20;99.90;;;;;;4983042;28;36838;-77
2023/04/24 12:47:34;;;;;;;7.00;1.90;;;11.40;99.90;;;;;;4963403;28;38046;-77
2023/04/24 12:50:01;;;;;;;12.75;2.22;;;11.80;99.90;;;;;;4966038;28;39270;-77
2023/04/24 12:52:29;;;;;;;5.60;1.80;;;11.90;99.90;;;;;;4975979;28;38601;-77